Terminal Aerodrome Forecast
Issued by NWS

Home | Current Version | Previous Version | Graphics & Text | Print | Product List | Glossary On
Versions: 1 2 3 4 5 6 7 8 9 10 11 12 13 14 15 16 17 18 19 20 21 22 23 24
000
FTUS41 KCLE 310546 CCA
TAFFDY
TAF COR
KFDY 310546Z 3106/0106 05012KT 4SM -SHRA BR SCT006 BKN021 OVC035
      TEMPO 3106/3110 2SM SHRA OVC008
     FM311000 05015KT 4SM -SHRA BR OVC007
     FM311300 04015G25KT 2SM RA BR OVC003
     FM312100 04018G28KT 6SM BR VCSH OVC007
     FM010200 02014KT P6SM OVC005=

USA.gov is the U.S. government's official web portal to all federal, state and local government web resources and services.